Grand Benelux — IBTB — position and weather

sailwx.info

Track history (hours):
 
Tides and Currents Weather Stations Pressure Air Temp Water Temp Dewpoint Dewpoint Depression Visibility Wind Speed Wind Dir Waves Ship Positions

Grand Benelux

Last reported at 2018-Jun-22 13:36 UTC. Time now 2018-Jun-23 12:23 UTC.
Position N 39°49' W 009°53'.

Length 177 m; draft 8.4 m.

Type: Cargo ship. MMSI: 247039400.

Date/timePositionNaut miles runAvg speedWind from/ knotsBaromVisibWave heightAir tempDewpointWater temp
2018-Jun-22 13:36N 39°49' W 009°53'217.3
2018-Jun-22 13:28N 39°46' W 009°53'817.3
2018-Jun-22 12:59N 39°38' W 009°53'817.4
2018-Jun-22 12:30N 39°30' W 009°54'816.7
2018-Jun-22 12:00N 39°21' W 009°54'916.9
2018-Jun-22 11:29N 39°12' W 009°54'817.0
2018-Jun-22 11:01N 39°04' W 009°54'817.0
2018-Jun-22 10:31N 38°56' W 009°53'816.8
2018-Jun-22 10:01N 38°47' W 009°52'816.4
2018-Jun-22 09:30N 38°39' W 009°49'816.5
2018-Jun-22 09:00N 38°35' W 009°41'816.8
2018-Jun-22 08:30N 38°31' W 009°31'917.1
2018-Jun-22 08:01N 38°26' W 009°22'816.8
2018-Jun-22 07:30N 38°24' W 009°12'816.7
2018-Jun-22 07:00N 38°26' W 009°01'612.7
2018-Jun-22 06:30N 38°30' W 008°55'3 5.5
2018-Jun-22 06:01N 38°31' W 008°52'0 0.0
2018-Jun-22 05:29N 38°31' W 008°52'0 0.0
2018-Jun-22 04:59N 38°31' W 008°52'0 0.0
2018-Jun-22 04:26N 38°31' W 008°52'0 0.0
2018-Jun-22 03:59N 38°31' W 008°52'0 0.0
2018-Jun-22 03:29N 38°31' W 008°52'0 0.0
2018-Jun-22 02:56N 38°31' W 008°52'0 0.0
2018-Jun-22 02:26N 38°31' W 008°52'0 0.0
2018-Jun-22 01:59N 38°31' W 008°52'0 0.0
2018-Jun-22 01:26N 38°31' W 008°52'0 0.0
2018-Jun-22 00:56N 38°31' W 008°52'0 0.0
2018-Jun-22 00:29N 38°31' W 008°52'0 0.0
2018-Jun-21 23:59N 38°31' W 008°52'0 0.0
2018-Jun-21 23:29N 38°31' W 008°52'0 0.0
2018-Jun-21 22:59N 38°31' W 008°52'0 0.0
2018-Jun-21 22:26N 38°31' W 008°52'0 0.0
2018-Jun-21 21:56N 38°31' W 008°52'0 0.0
2018-Jun-21 21:26N 38°31' W 008°52'0 0.0
2018-Jun-21 20:56N 38°31' W 008°52'0 0.0
2018-Jun-21 20:29N 38°31' W 008°52'0 0.0
2018-Jun-21 19:56N 38°31' W 008°52'0 0.0
2018-Jun-21 19:30N 38°31' W 008°52'0 0.6
2018-Jun-21 19:00N 38°31' W 008°52'4 7.8
2018-Jun-21 18:30N 38°29' W 008°57'612.8
2018-Jun-21 18:00N 38°23' W 009°00'917.5
2018-Jun-21 17:30N 38°14' W 009°02'917.0
2018-Jun-21 17:00N 38°06' W 009°05'917.4
2018-Jun-21 16:30N 37°58' W 009°07'917.7
2018-Jun-21 16:00N 37°49' W 009°09'917.5
2018-Jun-21 15:30N 37°40' W 009°11'917.5
2018-Jun-21 15:00N 37°32' W 009°13'917.5
2018-Jun-21 14:30N 37°23' W 009°15'917.6
2018-Jun-21 14:00N 37°14' W 009°17'2117.5
2018-Jun-21 12:49N 36°54' W 009°17'517.2
2018-Jun-21 12:30N 36°50' W 009°13'816.8
2018-Jun-21 12:00N 36°44' W 009°04'917.3
2018-Jun-21 11:30N 36°41' W 008°54'917.4
2018-Jun-21 11:00N 36°39' W 008°44'917.5
2018-Jun-21 10:30N 36°36' W 008°34'917.3
2018-Jun-21 10:00N 36°33' W 008°23'917.3
2018-Jun-21 09:30N 36°31' W 008°13'917.1
2018-Jun-21 08:59N 36°28' W 008°02'33915.9
2018-Jun-20 11:38N 37°16' W 001°03'317.9
2018-Jun-20 11:29N 37°17' W 001°01'918.1
2018-Jun-20 11:00N 37°23' W 000°52'918.2
2018-Jun-20 10:30N 37°29' W 000°43'918.2
2018-Jun-20 10:00N 37°34' W 000°34'918.2
2018-Jun-20 09:29N 37°43' W 000°28'918.1
2018-Jun-20 08:58N 37°50' W 000°22'817.9
2018-Jun-20 08:30N 37°57' W 000°16'917.8
2018-Jun-20 08:00N 38°05' W 000°09'917.8
2018-Jun-20 07:30N 38°12' W 000°03'918.0
2018-Jun-20 07:00N 38°20' E 000°03'15217.8
2018-Jun-19 22:28N 40°33' E 001°38'918.1
2018-Jun-19 22:00N 40°40' E 001°43'1418.2
2018-Jun-19 21:15N 40°52' E 001°52'517.9
2018-Jun-19 20:59N 40°56' E 001°55'917.7
2018-Jun-19 20:30N 41°04' E 002°01'917.8
2018-Jun-19 20:00N 41°11' E 002°07'816.2
2018-Jun-19 19:31N 41°19' E 002°10'2 3.0
2018-Jun-19 19:00N 41°20' E 002°09'0 0.0
2018-Jun-19 18:30N 41°20' E 002°09'0 0.0
2018-Jun-19 18:00N 41°20' E 002°09'0 0.0
2018-Jun-19 17:30N 41°20' E 002°09'0 0.0
2018-Jun-19 17:00N 41°20' E 002°09'0 0.0
2018-Jun-19 16:30N 41°20' E 002°09'0 0.0
2018-Jun-19 16:00N 41°20' E 002°09'0 0.0
2018-Jun-19 15:30N 41°20' E 002°09'0 0.0
2018-Jun-19 15:00N 41°20' E 002°09'0 0.0
2018-Jun-19 14:30N 41°20' E 002°09'0 0.0
2018-Jun-19 14:00N 41°20' E 002°09'0 0.0
2018-Jun-19 13:30N 41°20' E 002°09'0 0.0
2018-Jun-19 13:00N 41°20' E 002°09'0 0.0
2018-Jun-19 12:30N 41°20' E 002°09'0 0.0
2018-Jun-19 12:00N 41°20' E 002°09'0 0.0
2018-Jun-19 11:30N 41°20' E 002°09'0 0.0
2018-Jun-19 11:00N 41°20' E 002°09'0 0.0
2018-Jun-19 10:30N 41°20' E 002°09'0 0.0
2018-Jun-19 10:00N 41°20' E 002°09'0 0.0
2018-Jun-19 09:30N 41°20' E 002°09'0 0.0
2018-Jun-19 09:00N 41°20' E 002°09'0 0.0
2018-Jun-19 08:30N 41°20' E 002°09'0 0.0
2018-Jun-19 08:00N 41°20' E 002°09'0 0.0
2018-Jun-19 07:30N 41°20' E 002°09'0 0.0
2018-Jun-19 07:00N 41°20' E 002°09'0 0.0
2018-Jun-19 06:30N 41°20' E 002°09'0 0.0
2018-Jun-19 06:00N 41°20' E 002°09'0 0.1
2018-Jun-19 05:30N 41°20' E 002°09'1 1.8
2018-Jun-19 05:00N 41°20' E 002°10'3 6.5
2018-Jun-19 04:30N 41°17' E 002°12'4 8.0
2018-Jun-19 04:00N 41°18' E 002°17'815.5
2018-Jun-19 03:31N 41°21' E 002°26'918.2
2018-Jun-19 03:01N 41°24' E 002°38'918.4
2018-Jun-19 02:30N 41°27' E 002°49'918.7
2018-Jun-19 02:01N 41°30' E 003°01'1019.0
2018-Jun-19 01:30N 41°34' E 003°13'19717.2
2018-Jun-18 14:03N 42°50' E 007°17'4217.5
2018-Jun-18 11:40N 43°05' E 008°11'317.4
2018-Jun-18 11:31N 43°05' E 008°14'917.4
2018-Jun-18 11:00N 43°08' E 008°25'917.3
2018-Jun-18 10:31N 43°11' E 008°37'917.4
2018-Jun-18 10:00N 43°15' E 008°48'917.5
2018-Jun-18 09:30N 43°18' E 008°59'917.3
2018-Jun-18 09:00N 43°20' E 009°10'917.2
2018-Jun-18 08:30N 43°23' E 009°22'917.6
2018-Jun-18 08:01N 43°26' E 009°33'917.6
2018-Jun-18 07:31N 43°29' E 009°44'917.4
2018-Jun-18 07:00N 43°31' E 009°56'917.1
2018-Jun-18 06:31N 43°31' E 010°08'612.0
2018-Jun-18 06:00N 43°32' E 010°16'3 6.4
2018-Jun-18 05:30N 43°34' E 010°19'0 0.5
2018-Jun-18 05:00N 43°35' E 010°19'0 0.0
2018-Jun-18 04:30N 43°35' E 010°19'0 0.0
2018-Jun-18 04:00N 43°35' E 010°19'0 0.0
2018-Jun-18 03:30N 43°35' E 010°19'0 0.0
2018-Jun-18 02:57N 43°35' E 010°19'0 0.0
2018-Jun-18 02:30N 43°35' E 010°19'0 0.0
2018-Jun-18 02:00N 43°35' E 010°19'0 0.0
2018-Jun-18 01:27N 43°35' E 010°19'0 0.0
2018-Jun-18 01:00N 43°35' E 010°19'0 0.0
2018-Jun-18 00:30N 43°35' E 010°19'0 0.0
2018-Jun-18 00:00N 43°35' E 010°19'0 0.0
2018-Jun-17 23:30N 43°35' E 010°19'0 0.0
2018-Jun-17 23:00N 43°35' E 010°19'0 0.0
2018-Jun-17 22:30N 43°35' E 010°19'0 0.0
2018-Jun-17 22:00N 43°35' E 010°19'0 0.0
2018-Jun-17 21:30N 43°35' E 010°19'0 0.0
2018-Jun-17 21:00N 43°35' E 010°19'0 0.0
2018-Jun-17 20:30N 43°35' E 010°19'0 0.0
2018-Jun-17 20:00N 43°35' E 010°19'0 0.0
2018-Jun-17 19:30N 43°35' E 010°19'0 0.0
2018-Jun-17 19:00N 43°35' E 010°19'0 0.0
2018-Jun-17 18:30N 43°35' E 010°19'0 0.0
2018-Jun-17 18:00N 43°35' E 010°19'0 0.0
2018-Jun-17 17:30N 43°35' E 010°19'0 0.0
2018-Jun-17 17:00N 43°35' E 010°19'0 0.0
2018-Jun-17 16:30N 43°35' E 010°19'0 0.0
2018-Jun-17 16:00N 43°35' E 010°19'1 1.4
2018-Jun-17 15:30N 43°34' E 010°18'3 6.4
2018-Jun-17 15:01N 43°31' E 010°16'611.3
2018-Jun-17 14:31N 43°27' E 010°12'816.6
2018-Jun-17 14:01N 43°19' E 010°16'816.7
2018-Jun-17 13:31N 43°11' E 010°20'816.5
2018-Jun-17 13:00N 43°03' E 010°24'816.8
2018-Jun-17 12:31N 42°56' E 010°29'816.4
2018-Jun-17 12:00N 42°48' E 010°33'816.3
2018-Jun-17 11:30N 42°41' E 010°40'816.0
2018-Jun-17 11:01N 42°35' E 010°47'816.0
2018-Jun-17 10:30N 42°29' E 010°54'816.0
2018-Jun-17 09:59N 42°23' E 011°02'14616.3
2018-Jun-17 01:04N 40°50' E 013°32'116.6
2018-Jun-17 01:01N 40°50' E 013°33'816.7
2018-Jun-17 00:31N 40°44' E 013°41'816.5
2018-Jun-17 00:01N 40°39' E 013°49'816.4
2018-Jun-16 23:31N 40°35' E 013°59'916.5
2018-Jun-16 22:58N 40°31' E 014°10'716.2
2018-Jun-16 22:31N 40°31' E 014°19'816.5
2018-Jun-16 22:00N 40°33' E 014°30'816.8
2018-Jun-16 21:30N 40°37' E 014°40'4 0.2
2018-Jun-15 20:31N 40°37' E 014°45'0 6.4
2018-Jun-15 20:29N 40°37' E 014°45'5 9.6
2018-Jun-15 20:00N 40°32' E 014°44'714.7
2018-Jun-15 19:30N 40°25' E 014°45'815.1
2018-Jun-15 19:00N 40°17' E 014°45'714.2
2018-Jun-15 18:30N 40°10' E 014°48'9015.3
2018-Jun-15 12:38N 38°46' E 015°28'215.6
2018-Jun-15 12:30N 38°44' E 015°29'1015.7
2018-Jun-15 11:52N 38°35' E 015°34'615.7
2018-Jun-15 11:30N 38°29' E 015°37'815.6
2018-Jun-15 11:00N 38°22' E 015°40'713.3
2018-Jun-15 10:28N 38°15' E 015°39'613.5
2018-Jun-15 10:00N 38°09' E 015°37'3 6.2
2018-Jun-15 09:30N 38°06' E 015°36'713.9
2018-Jun-15 08:59N 37°59' E 015°37'714.7
2018-Jun-15 08:30N 37°54' E 015°43'815.8
2018-Jun-15 08:00N 37°50' E 015°52'815.9
2018-Jun-15 07:30N 37°48' E 016°02'35115.1
2018-Jun-14 08:15N 36°24' E 023°09'415.9
2018-Jun-14 08:00N 36°26' E 023°14'23314.7
2018-Jun-13 16:11N 39°45' E 025°48'12312.4
2018-Jun-13 06:17N 40°32' E 028°16'716.1
2018-Jun-13 05:52N 40°29' E 028°24'1315.6
2018-Jun-13 05:00N 40°27' E 028°41'  
Track history (hours):
 
Tides and Currents Weather Stations Pressure Air Temp Water Temp Dewpoint Dewpoint Depression Visibility Wind Speed Wind Dir Waves Ship Positions

Grand Benelux

Last reported at 2018-Jun-22 13:36 UTC. Time now 2018-Jun-23 12:23 UTC.
Position N 39°49' W 009°53'.

Length 177 m; draft 8.4 m.

Type: Cargo ship. MMSI: 247039400.

Date/timePositionNaut miles runAvg speedWind from/ knotsBaromVisibWave heightAir tempDewpointWater temp
2018-Jun-22 13:36N 39°49' W 009°53'217.3
2018-Jun-22 13:28N 39°46' W 009°53'817.3
2018-Jun-22 12:59N 39°38' W 009°53'817.4
2018-Jun-22 12:30N 39°30' W 009°54'816.7
2018-Jun-22 12:00N 39°21' W 009°54'916.9
2018-Jun-22 11:29N 39°12' W 009°54'817.0
2018-Jun-22 11:01N 39°04' W 009°54'817.0
2018-Jun-22 10:31N 38°56' W 009°53'816.8
2018-Jun-22 10:01N 38°47' W 009°52'816.4
2018-Jun-22 09:30N 38°39' W 009°49'816.5
2018-Jun-22 09:00N 38°35' W 009°41'816.8
2018-Jun-22 08:30N 38°31' W 009°31'917.1
2018-Jun-22 08:01N 38°26' W 009°22'816.8
2018-Jun-22 07:30N 38°24' W 009°12'816.7
2018-Jun-22 07:00N 38°26' W 009°01'612.7
2018-Jun-22 06:30N 38°30' W 008°55'3 5.5
2018-Jun-22 06:01N 38°31' W 008°52'0 0.0
2018-Jun-22 05:29N 38°31' W 008°52'0 0.0
2018-Jun-22 04:59N 38°31' W 008°52'0 0.0
2018-Jun-22 04:26N 38°31' W 008°52'0 0.0
2018-Jun-22 03:59N 38°31' W 008°52'0 0.0
2018-Jun-22 03:29N 38°31' W 008°52'0 0.0
2018-Jun-22 02:56N 38°31' W 008°52'0 0.0
2018-Jun-22 02:26N 38°31' W 008°52'0 0.0
2018-Jun-22 01:59N 38°31' W 008°52'0 0.0
2018-Jun-22 01:26N 38°31' W 008°52'0 0.0
2018-Jun-22 00:56N 38°31' W 008°52'0 0.0
2018-Jun-22 00:29N 38°31' W 008°52'0 0.0
2018-Jun-21 23:59N 38°31' W 008°52'0 0.0
2018-Jun-21 23:29N 38°31' W 008°52'0 0.0
2018-Jun-21 22:59N 38°31' W 008°52'0 0.0
2018-Jun-21 22:26N 38°31' W 008°52'0 0.0
2018-Jun-21 21:56N 38°31' W 008°52'0 0.0
2018-Jun-21 21:26N 38°31' W 008°52'0 0.0
2018-Jun-21 20:56N 38°31' W 008°52'0 0.0
2018-Jun-21 20:29N 38°31' W 008°52'0 0.0
2018-Jun-21 19:56N 38°31' W 008°52'0 0.0
2018-Jun-21 19:30N 38°31' W 008°52'0 0.6
2018-Jun-21 19:00N 38°31' W 008°52'4 7.8
2018-Jun-21 18:30N 38°29' W 008°57'612.8
2018-Jun-21 18:00N 38°23' W 009°00'917.5
2018-Jun-21 17:30N 38°14' W 009°02'917.0
2018-Jun-21 17:00N 38°06' W 009°05'917.4
2018-Jun-21 16:30N 37°58' W 009°07'917.7
2018-Jun-21 16:00N 37°49' W 009°09'917.5
2018-Jun-21 15:30N 37°40' W 009°11'917.5
2018-Jun-21 15:00N 37°32' W 009°13'917.5
2018-Jun-21 14:30N 37°23' W 009°15'917.6
2018-Jun-21 14:00N 37°14' W 009°17'2117.5
2018-Jun-21 12:49N 36°54' W 009°17'517.2
2018-Jun-21 12:30N 36°50' W 009°13'816.8
2018-Jun-21 12:00N 36°44' W 009°04'917.3
2018-Jun-21 11:30N 36°41' W 008°54'917.4
2018-Jun-21 11:00N 36°39' W 008°44'917.5
2018-Jun-21 10:30N 36°36' W 008°34'917.3
2018-Jun-21 10:00N 36°33' W 008°23'917.3
2018-Jun-21 09:30N 36°31' W 008°13'917.1
2018-Jun-21 08:59N 36°28' W 008°02'33915.9
2018-Jun-20 11:38N 37°16' W 001°03'317.9
2018-Jun-20 11:29N 37°17' W 001°01'918.1
2018-Jun-20 11:00N 37°23' W 000°52'918.2
2018-Jun-20 10:30N 37°29' W 000°43'918.2
2018-Jun-20 10:00N 37°34' W 000°34'918.2
2018-Jun-20 09:29N 37°43' W 000°28'918.1
2018-Jun-20 08:58N 37°50' W 000°22'817.9
2018-Jun-20 08:30N 37°57' W 000°16'917.8
2018-Jun-20 08:00N 38°05' W 000°09'917.8
2018-Jun-20 07:30N 38°12' W 000°03'918.0
2018-Jun-20 07:00N 38°20' E 000°03'15217.8
2018-Jun-19 22:28N 40°33' E 001°38'918.1
2018-Jun-19 22:00N 40°40' E 001°43'1418.2
2018-Jun-19 21:15N 40°52' E 001°52'517.9
2018-Jun-19 20:59N 40°56' E 001°55'917.7
2018-Jun-19 20:30N 41°04' E 002°01'917.8
2018-Jun-19 20:00N 41°11' E 002°07'816.2
2018-Jun-19 19:31N 41°19' E 002°10'2 3.0
2018-Jun-19 19:00N 41°20' E 002°09'0 0.0
2018-Jun-19 18:30N 41°20' E 002°09'0 0.0
2018-Jun-19 18:00N 41°20' E 002°09'0 0.0
2018-Jun-19 17:30N 41°20' E 002°09'0 0.0
2018-Jun-19 17:00N 41°20' E 002°09'0 0.0
2018-Jun-19 16:30N 41°20' E 002°09'0 0.0
2018-Jun-19 16:00N 41°20' E 002°09'0 0.0
2018-Jun-19 15:30N 41°20' E 002°09'0 0.0
2018-Jun-19 15:00N 41°20' E 002°09'0 0.0
2018-Jun-19 14:30N 41°20' E 002°09'0 0.0
2018-Jun-19 14:00N 41°20' E 002°09'0 0.0
2018-Jun-19 13:30N 41°20' E 002°09'0 0.0
2018-Jun-19 13:00N 41°20' E 002°09'0 0.0
2018-Jun-19 12:30N 41°20' E 002°09'0 0.0
2018-Jun-19 12:00N 41°20' E 002°09'0 0.0
2018-Jun-19 11:30N 41°20' E 002°09'0 0.0
2018-Jun-19 11:00N 41°20' E 002°09'0 0.0
2018-Jun-19 10:30N 41°20' E 002°09'0 0.0
2018-Jun-19 10:00N 41°20' E 002°09'0 0.0
2018-Jun-19 09:30N 41°20' E 002°09'0 0.0
2018-Jun-19 09:00N 41°20' E 002°09'0 0.0
2018-Jun-19 08:30N 41°20' E 002°09'0 0.0
2018-Jun-19 08:00N 41°20' E 002°09'0 0.0
2018-Jun-19 07:30N 41°20' E 002°09'0 0.0
2018-Jun-19 07:00N 41°20' E 002°09'0 0.0
2018-Jun-19 06:30N 41°20' E 002°09'0 0.0
2018-Jun-19 06:00N 41°20' E 002°09'0 0.1
2018-Jun-19 05:30N 41°20' E 002°09'1 1.8
2018-Jun-19 05:00N 41°20' E 002°10'3 6.5
2018-Jun-19 04:30N 41°17' E 002°12'4 8.0
2018-Jun-19 04:00N 41°18' E 002°17'815.5
2018-Jun-19 03:31N 41°21' E 002°26'918.2
2018-Jun-19 03:01N 41°24' E 002°38'918.4
2018-Jun-19 02:30N 41°27' E 002°49'918.7
2018-Jun-19 02:01N 41°30' E 003°01'1019.0
2018-Jun-19 01:30N 41°34' E 003°13'19717.2
2018-Jun-18 14:03N 42°50' E 007°17'4217.5
2018-Jun-18 11:40N 43°05' E 008°11'317.4
2018-Jun-18 11:31N 43°05' E 008°14'917.4
2018-Jun-18 11:00N 43°08' E 008°25'917.3
2018-Jun-18 10:31N 43°11' E 008°37'917.4
2018-Jun-18 10:00N 43°15' E 008°48'917.5
2018-Jun-18 09:30N 43°18' E 008°59'917.3
2018-Jun-18 09:00N 43°20' E 009°10'917.2
2018-Jun-18 08:30N 43°23' E 009°22'917.6
2018-Jun-18 08:01N 43°26' E 009°33'917.6
2018-Jun-18 07:31N 43°29' E 009°44'917.4
2018-Jun-18 07:00N 43°31' E 009°56'917.1
2018-Jun-18 06:31N 43°31' E 010°08'612.0
2018-Jun-18 06:00N 43°32' E 010°16'3 6.4
2018-Jun-18 05:30N 43°34' E 010°19'0 0.5
2018-Jun-18 05:00N 43°35' E 010°19'0 0.0
2018-Jun-18 04:30N 43°35' E 010°19'0 0.0
2018-Jun-18 04:00N 43°35' E 010°19'0 0.0
2018-Jun-18 03:30N 43°35' E 010°19'0 0.0
2018-Jun-18 02:57N 43°35' E 010°19'0 0.0
2018-Jun-18 02:30N 43°35' E 010°19'0 0.0
2018-Jun-18 02:00N 43°35' E 010°19'0 0.0
2018-Jun-18 01:27N 43°35' E 010°19'0 0.0
2018-Jun-18 01:00N 43°35' E 010°19'0 0.0
2018-Jun-18 00:30N 43°35' E 010°19'0 0.0
2018-Jun-18 00:00N 43°35' E 010°19'0 0.0
2018-Jun-17 23:30N 43°35' E 010°19'0 0.0
2018-Jun-17 23:00N 43°35' E 010°19'0 0.0
2018-Jun-17 22:30N 43°35' E 010°19'0 0.0
2018-Jun-17 22:00N 43°35' E 010°19'0 0.0
2018-Jun-17 21:30N 43°35' E 010°19'0 0.0
2018-Jun-17 21:00N 43°35' E 010°19'0 0.0
2018-Jun-17 20:30N 43°35' E 010°19'0 0.0
2018-Jun-17 20:00N 43°35' E 010°19'0 0.0
2018-Jun-17 19:30N 43°35' E 010°19'0 0.0
2018-Jun-17 19:00N 43°35' E 010°19'0 0.0
2018-Jun-17 18:30N 43°35' E 010°19'0 0.0
2018-Jun-17 18:00N 43°35' E 010°19'0 0.0
2018-Jun-17 17:30N 43°35' E 010°19'0 0.0
2018-Jun-17 17:00N 43°35' E 010°19'0 0.0
2018-Jun-17 16:30N 43°35' E 010°19'0 0.0
2018-Jun-17 16:00N 43°35' E 010°19'1 1.4
2018-Jun-17 15:30N 43°34' E 010°18'3 6.4
2018-Jun-17 15:01N 43°31' E 010°16'611.3
2018-Jun-17 14:31N 43°27' E 010°12'816.6
2018-Jun-17 14:01N 43°19' E 010°16'816.7
2018-Jun-17 13:31N 43°11' E 010°20'816.5
2018-Jun-17 13:00N 43°03' E 010°24'816.8
2018-Jun-17 12:31N 42°56' E 010°29'816.4
2018-Jun-17 12:00N 42°48' E 010°33'816.3
2018-Jun-17 11:30N 42°41' E 010°40'816.0
2018-Jun-17 11:01N 42°35' E 010°47'816.0
2018-Jun-17 10:30N 42°29' E 010°54'816.0
2018-Jun-17 09:59N 42°23' E 011°02'14616.3
2018-Jun-17 01:04N 40°50' E 013°32'116.6
2018-Jun-17 01:01N 40°50' E 013°33'816.7
2018-Jun-17 00:31N 40°44' E 013°41'816.5
2018-Jun-17 00:01N 40°39' E 013°49'816.4
2018-Jun-16 23:31N 40°35' E 013°59'916.5
2018-Jun-16 22:58N 40°31' E 014°10'716.2
2018-Jun-16 22:31N 40°31' E 014°19'816.5
2018-Jun-16 22:00N 40°33' E 014°30'816.8
2018-Jun-16 21:30N 40°37' E 014°40'4 0.2
2018-Jun-15 20:31N 40°37' E 014°45'0 6.4
2018-Jun-15 20:29N 40°37' E 014°45'5 9.6
2018-Jun-15 20:00N 40°32' E 014°44'714.7
2018-Jun-15 19:30N 40°25' E 014°45'815.1
2018-Jun-15 19:00N 40°17' E 014°45'714.2
2018-Jun-15 18:30N 40°10' E 014°48'9015.3
2018-Jun-15 12:38N 38°46' E 015°28'215.6
2018-Jun-15 12:30N 38°44' E 015°29'1015.7
2018-Jun-15 11:52N 38°35' E 015°34'615.7
2018-Jun-15 11:30N 38°29' E 015°37'815.6
2018-Jun-15 11:00N 38°22' E 015°40'713.3
2018-Jun-15 10:28N 38°15' E 015°39'613.5
2018-Jun-15 10:00N 38°09' E 015°37'3 6.2
2018-Jun-15 09:30N 38°06' E 015°36'713.9
2018-Jun-15 08:59N 37°59' E 015°37'714.7
2018-Jun-15 08:30N 37°54' E 015°43'815.8
2018-Jun-15 08:00N 37°50' E 015°52'815.9
2018-Jun-15 07:30N 37°48' E 016°02'35115.1
2018-Jun-14 08:15N 36°24' E 023°09'415.9
2018-Jun-14 08:00N 36°26' E 023°14'23314.7
2018-Jun-13 16:11N 39°45' E 025°48'12312.4
2018-Jun-13 06:17N 40°32' E 028°16'716.1
2018-Jun-13 05:52N 40°29' E 028°24'1315.6
2018-Jun-13 05:00N 40°27' E 028°41'  

Dump ship's entire track history